createdAt,value
2018-09-30T00:02:19.866Z,99.90
2018-09-30T00:04:47.903Z,99.90
2018-09-30T00:07:15.873Z,99.90
2018-09-30T00:09:43.743Z,99.90
2018-09-30T00:12:11.763Z,99.90
2018-09-30T00:14:39.785Z,99.90
2018-09-30T00:17:08.001Z,99.90
2018-09-30T00:19:36.154Z,99.90
2018-09-30T00:22:04.385Z,99.90
2018-09-30T00:24:37.781Z,99.90
2018-09-30T00:27:11.480Z,99.90
2018-09-30T00:29:39.576Z,99.90
2018-09-30T00:32:07.650Z,99.90
2018-09-30T00:34:35.611Z,99.90
2018-09-30T00:37:04.831Z,99.90
2018-09-30T00:39:32.727Z,99.90
2018-09-30T00:42:00.856Z,99.90
2018-09-30T00:44:28.851Z,99.90
2018-09-30T00:46:56.926Z,99.90
2018-09-30T00:49:25.342Z,99.90
2018-09-30T00:51:53.154Z,99.90
2018-09-30T00:54:21.045Z,99.90
2018-09-30T00:56:49.041Z,99.90
2018-09-30T00:59:17.143Z,99.90
2018-09-30T01:01:45.284Z,99.90
2018-09-30T01:04:13.352Z,99.90
2018-09-30T01:06:41.771Z,99.90
2018-09-30T01:09:12.706Z,99.90
2018-09-30T01:11:40.738Z,99.90
2018-09-30T01:14:08.960Z,99.90
2018-09-30T01:16:37.144Z,99.90
2018-09-30T01:19:05.212Z,99.90
2018-09-30T01:21:34.617Z,99.90
2018-09-30T01:24:02.604Z,99.90
2018-09-30T01:26:30.780Z,99.90
2018-09-30T01:28:58.725Z,99.90
2018-09-30T01:31:26.796Z,99.90
2018-09-30T01:33:55.164Z,99.90
2018-09-30T01:36:23.456Z,99.90
2018-09-30T01:38:51.350Z,99.90
2018-09-30T01:41:19.339Z,99.90
2018-09-30T01:43:47.140Z,99.90
2018-09-30T01:46:15.292Z,99.90
2018-09-30T01:48:43.107Z,99.90
2018-09-30T01:51:11.087Z,99.90
2018-09-30T01:53:38.924Z,99.90
2018-09-30T01:56:06.915Z,99.90
2018-09-30T01:58:34.724Z,99.90
2018-09-30T02:01:02.487Z,99.90
2018-09-30T02:03:30.587Z,99.90
2018-09-30T02:05:58.663Z,99.90
2018-09-30T02:08:26.562Z,99.90
2018-09-30T02:10:54.904Z,99.90
2018-09-30T02:13:22.952Z,99.90
2018-09-30T02:15:51.174Z,99.90
2018-09-30T02:18:19.213Z,99.90
2018-09-30T02:20:47.257Z,99.90
2018-09-30T02:23:15.130Z,99.90
2018-09-30T02:25:43.619Z,99.90
2018-09-30T02:28:11.483Z,99.90
2018-09-30T02:30:39.410Z,99.90
2018-09-30T02:33:07.212Z,99.90
2018-09-30T02:35:35.224Z,99.90
2018-09-30T02:38:03.298Z,99.90
2018-09-30T02:40:31.127Z,99.90
2018-09-30T02:42:59.085Z,99.90
2018-09-30T02:45:27.181Z,99.90
2018-09-30T02:47:55.073Z,99.90
2018-09-30T02:50:22.764Z,99.90
2018-09-30T02:52:50.916Z,99.90
2018-09-30T02:55:18.814Z,99.90
2018-09-30T02:57:46.599Z,99.90
2018-09-30T03:00:14.654Z,99.90
2018-09-30T03:02:42.906Z,99.90
2018-09-30T03:05:10.694Z,99.90
2018-09-30T03:07:44.218Z,99.90
2018-09-30T03:10:12.029Z,99.90
2018-09-30T03:12:40.119Z,99.90
2018-09-30T03:15:08.049Z,99.90
2018-09-30T03:17:35.973Z,99.90
2018-09-30T03:20:03.853Z,99.90
2018-09-30T03:22:31.982Z,99.90
2018-09-30T03:25:14.695Z,99.90
2018-09-30T03:27:42.464Z,99.90
2018-09-30T03:30:10.339Z,99.90
2018-09-30T03:32:38.127Z,99.90
2018-09-30T03:35:06.207Z,99.90
2018-09-30T03:37:34.028Z,99.90
2018-09-30T03:40:02.113Z,99.90
2018-09-30T03:42:30.955Z,99.90
2018-09-30T03:44:58.992Z,99.90
2018-09-30T03:47:26.985Z,99.90
2018-09-30T03:49:54.843Z,99.90
2018-09-30T03:52:22.547Z,99.90
2018-09-30T03:54:50.532Z,99.90
2018-09-30T03:57:22.244Z,99.90
2018-09-30T03:59:50.230Z,99.90
2018-09-30T04:02:18.072Z,99.90
2018-09-30T04:04:45.874Z,99.90
2018-09-30T04:07:13.690Z,99.90
2018-09-30T04:09:41.558Z,99.90
2018-09-30T04:12:09.616Z,99.90
2018-09-30T04:14:38.122Z,99.90
2018-09-30T04:17:05.962Z,99.90
2018-09-30T04:19:34.228Z,99.90
2018-09-30T04:22:02.204Z,99.90
2018-09-30T04:24:30.123Z,99.90
2018-09-30T04:26:58.970Z,99.90
2018-09-30T04:29:27.047Z,99.90
2018-09-30T04:31:54.988Z,99.90
2018-09-30T04:34:22.939Z,99.90
2018-09-30T04:36:51.242Z,99.90
2018-09-30T04:39:19.177Z,99.90
2018-09-30T04:41:47.031Z,99.90
2018-09-30T04:44:15.043Z,99.90
2018-09-30T04:46:42.855Z,99.90
2018-09-30T04:49:10.882Z,99.90
2018-09-30T04:51:38.928Z,99.90
2018-09-30T04:54:07.213Z,99.90
2018-09-30T04:56:35.485Z,99.90
2018-09-30T04:59:03.394Z,99.90
2018-09-30T05:01:31.341Z,99.90
2018-09-30T05:03:59.241Z,99.90
2018-09-30T05:06:27.318Z,99.90
2018-09-30T05:08:55.593Z,99.90
2018-09-30T05:11:23.506Z,99.90
2018-09-30T05:13:51.904Z,99.90
2018-09-30T05:16:19.817Z,99.90
2018-09-30T05:18:47.740Z,99.90
2018-09-30T05:21:15.749Z,99.90
2018-09-30T05:23:43.591Z,99.90
2018-09-30T05:26:11.757Z,99.90
2018-09-30T05:28:39.930Z,99.90
2018-09-30T05:31:08.163Z,99.90
2018-09-30T05:33:36.094Z,99.90
2018-09-30T05:36:03.990Z,99.90
2018-09-30T05:38:32.125Z,99.90
2018-09-30T05:41:00.123Z,99.90
2018-09-30T05:43:28.178Z,99.90
2018-09-30T05:45:56.169Z,99.90
2018-09-30T05:48:30.768Z,99.90
2018-09-30T05:50:58.824Z,99.90
2018-09-30T05:53:26.615Z,99.90
2018-09-30T05:55:54.627Z,99.90
2018-09-30T05:58:22.730Z,99.90
2018-09-30T06:00:51.558Z,99.90
2018-09-30T06:03:19.496Z,99.90
2018-09-30T06:05:47.528Z,99.90
2018-09-30T06:08:15.292Z,99.90
2018-09-30T06:10:43.880Z,99.90
2018-09-30T06:13:12.231Z,99.90
2018-09-30T06:15:40.608Z,99.90
2018-09-30T06:18:08.754Z,99.90
2018-09-30T06:20:36.578Z,99.90
2018-09-30T06:23:04.455Z,99.90
2018-09-30T06:25:32.751Z,99.90
2018-09-30T06:28:00.793Z,99.90
2018-09-30T06:30:28.795Z,99.90
2018-09-30T06:32:57.170Z,99.90
2018-09-30T06:35:25.454Z,99.90
2018-09-30T06:37:53.807Z,99.90
2018-09-30T06:40:21.805Z,99.90
2018-09-30T06:42:50.179Z,99.90
2018-09-30T06:45:18.179Z,99.90
2018-09-30T06:47:46.126Z,99.90
2018-09-30T06:50:14.028Z,99.90
2018-09-30T06:52:42.168Z,99.90
2018-09-30T06:55:10.767Z,99.90
2018-09-30T06:57:39.262Z,99.90
2018-09-30T07:00:07.595Z,99.90
2018-09-30T07:02:36.256Z,99.90
2018-09-30T07:05:05.084Z,99.90
2018-09-30T07:07:33.524Z,99.90
2018-09-30T07:10:01.356Z,99.90
2018-09-30T07:12:29.807Z,99.90
2018-09-30T07:14:59.502Z,99.90
2018-09-30T07:17:27.431Z,99.90
2018-09-30T07:19:55.368Z,99.90
2018-09-30T07:22:23.605Z,99.90
2018-09-30T07:24:51.451Z,99.90
2018-09-30T07:27:19.335Z,99.90
2018-09-30T07:29:47.740Z,99.90
2018-09-30T07:32:16.216Z,99.90
2018-09-30T07:34:44.089Z,99.90
2018-09-30T07:37:12.267Z,99.90
2018-09-30T07:39:40.212Z,99.80
2018-09-30T07:42:08.414Z,98.60
2018-09-30T07:44:36.488Z,98.40
2018-09-30T07:47:04.461Z,98.60
2018-09-30T07:49:32.682Z,98.70
2018-09-30T07:52:00.649Z,96.50
2018-09-30T07:54:28.857Z,97.10
2018-09-30T07:56:56.930Z,96.50
2018-09-30T07:59:24.942Z,96.80
2018-09-30T08:01:53.408Z,96.40
2018-09-30T08:04:21.270Z,96.00
2018-09-30T08:06:50.273Z,97.10
2018-09-30T08:09:18.150Z,97.90
2018-09-30T08:11:46.148Z,99.30
2018-09-30T08:14:14.374Z,98.20
2018-09-30T08:16:42.375Z,97.80
2018-09-30T08:19:10.685Z,95.90
2018-09-30T08:21:38.807Z,97.30
2018-09-30T08:24:07.386Z,97.10
2018-09-30T08:26:36.494Z,92.30
2018-09-30T08:29:04.649Z,91.10
2018-09-30T08:31:32.877Z,91.90
2018-09-30T08:34:01.281Z,83.50
2018-09-30T08:36:29.411Z,82.30
2018-09-30T08:38:57.712Z,91.10
2018-09-30T08:41:25.783Z,86.80
2018-09-30T08:43:54.997Z,89.20
2018-09-30T08:46:23.579Z,89.20
2018-09-30T08:48:51.588Z,78.60
2018-09-30T08:51:19.665Z,75.50
2018-09-30T08:53:48.548Z,77.30
2018-09-30T08:56:16.662Z,74.40
2018-09-30T08:58:44.780Z,81.00
2018-09-30T09:01:12.824Z,77.00
2018-09-30T09:03:40.712Z,71.60
2018-09-30T09:06:08.741Z,76.00
2018-09-30T09:08:36.784Z,72.60
2018-09-30T09:11:04.780Z,74.70
2018-09-30T09:13:32.974Z,66.30
2018-09-30T09:16:00.935Z,69.30
2018-09-30T09:18:29.133Z,74.60
2018-09-30T09:20:57.110Z,73.50
2018-09-30T09:23:25.383Z,73.30
2018-09-30T09:25:53.633Z,68.20
2018-09-30T09:28:21.830Z,69.60
2018-09-30T09:30:49.644Z,68.50
2018-09-30T09:33:17.595Z,67.40
2018-09-30T09:35:46.487Z,64.20
2018-09-30T09:38:14.664Z,66.60
2018-09-30T09:40:42.772Z,65.60
2018-09-30T09:43:10.674Z,67.90
2018-09-30T09:45:38.887Z,64.00
2018-09-30T09:48:06.805Z,65.70
2018-09-30T09:50:34.924Z,63.60
2018-09-30T09:53:03.002Z,63.30
2018-09-30T09:55:31.025Z,61.60
2018-09-30T09:57:58.982Z,60.30
2018-09-30T10:00:35.388Z,62.70
2018-09-30T10:03:03.513Z,61.10
2018-09-30T10:05:31.329Z,60.90
2018-09-30T10:07:59.446Z,62.10
2018-09-30T10:10:27.293Z,63.00
2018-09-30T10:12:55.268Z,61.90
2018-09-30T10:15:24.055Z,61.50
2018-09-30T10:17:51.888Z,62.30
2018-09-30T10:20:20.040Z,63.00
2018-09-30T10:22:48.149Z,60.90
2018-09-30T10:25:16.153Z,60.70
2018-09-30T10:27:44.628Z,59.80
2018-09-30T10:30:12.940Z,60.60
2018-09-30T10:32:40.893Z,58.90
2018-09-30T10:35:08.944Z,57.50
2018-09-30T10:37:37.230Z,61.60
2018-09-30T10:40:06.554Z,62.10
2018-09-30T10:42:35.373Z,55.80
2018-09-30T10:45:04.707Z,57.10
2018-09-30T10:47:33.116Z,59.70
2018-09-30T10:50:01.174Z,61.10
2018-09-30T10:52:29.841Z,55.30
2018-09-30T10:54:58.153Z,58.30
2018-09-30T10:57:26.144Z,57.00
2018-09-30T10:59:54.395Z,59.70
2018-09-30T11:02:22.912Z,56.20
2018-09-30T11:04:50.877Z,53.70
2018-09-30T11:07:19.178Z,58.10
2018-09-30T11:09:47.354Z,59.30
2018-09-30T11:12:15.504Z,59.50
2018-09-30T11:14:45.152Z,57.40
2018-09-30T11:19:56.840Z,55.60
2018-09-30T11:22:24.955Z,56.30
2018-09-30T11:24:52.895Z,54.20
2018-09-30T11:27:20.777Z,55.00
2018-09-30T11:29:49.080Z,52.90
2018-09-30T11:32:17.137Z,54.90
2018-09-30T11:34:45.086Z,55.70
2018-09-30T11:37:13.120Z,56.40
2018-09-30T11:39:41.099Z,53.20
2018-09-30T11:42:09.150Z,54.30
2018-09-30T11:44:37.259Z,53.30
2018-09-30T11:47:05.299Z,53.00
2018-09-30T11:49:33.550Z,51.20
2018-09-30T11:52:01.483Z,54.50
2018-09-30T11:54:29.443Z,55.20
2018-09-30T11:56:57.425Z,52.50
2018-09-30T11:59:25.616Z,53.60
2018-09-30T12:01:54.237Z,53.10
2018-09-30T12:04:22.430Z,52.40
2018-09-30T12:06:54.443Z,53.40
2018-09-30T12:09:23.027Z,50.30
2018-09-30T12:11:51.064Z,52.30
2018-09-30T12:14:19.999Z,50.70
2018-09-30T12:16:47.823Z,51.70
2018-09-30T12:19:18.700Z,52.10
2018-09-30T12:21:46.799Z,50.20
2018-09-30T12:24:14.754Z,50.60
2018-09-30T12:26:43.195Z,50.20
2018-09-30T12:29:11.717Z,52.10
2018-09-30T12:31:39.973Z,49.60
2018-09-30T12:34:08.666Z,52.10
2018-09-30T12:36:38.343Z,51.10
2018-09-30T12:39:08.935Z,51.50
2018-09-30T12:41:38.017Z,49.40
2018-09-30T12:44:06.079Z,49.80
2018-09-30T12:46:34.571Z,50.40
2018-09-30T12:49:03.533Z,49.50
2018-09-30T12:51:32.641Z,52.50
2018-09-30T12:54:00.757Z,53.50
2018-09-30T12:56:28.984Z,53.30
2018-09-30T12:58:58.526Z,55.20
2018-09-30T13:01:27.074Z,54.10
2018-09-30T13:03:55.016Z,52.80
2018-09-30T13:06:23.271Z,52.10
2018-09-30T13:08:51.703Z,53.60
2018-09-30T13:11:20.478Z,54.20
2018-09-30T13:13:49.220Z,54.90
2018-09-30T13:16:17.762Z,55.00
2018-09-30T13:18:46.040Z,56.30
2018-09-30T13:21:16.163Z,54.20
2018-09-30T13:23:44.190Z,54.70
2018-09-30T13:26:12.502Z,56.20
2018-09-30T13:28:40.490Z,55.40
2018-09-30T13:31:08.491Z,56.40
2018-09-30T13:33:36.757Z,57.30
2018-09-30T13:36:05.186Z,57.80
2018-09-30T13:38:33.934Z,58.00
2018-09-30T13:41:02.553Z,56.90
2018-09-30T13:43:30.909Z,57.00
2018-09-30T13:45:59.630Z,57.10
2018-09-30T13:48:27.420Z,57.70
2018-09-30T13:50:56.534Z,58.30
2018-09-30T13:53:24.555Z,57.90
2018-09-30T13:55:52.624Z,58.80
2018-09-30T13:58:21.068Z,59.60
2018-09-30T14:00:49.461Z,59.80
2018-09-30T14:03:17.527Z,58.90
2018-09-30T14:05:45.676Z,59.40
2018-09-30T14:08:13.935Z,59.80
2018-09-30T14:10:42.160Z,59.20
2018-09-30T14:13:10.476Z,59.20
2018-09-30T14:15:39.154Z,59.60
2018-09-30T14:18:07.834Z,59.70
2018-09-30T14:20:36.052Z,60.20
2018-09-30T14:23:04.338Z,59.00
2018-09-30T14:25:33.144Z,61.00
2018-09-30T14:28:01.331Z,59.00
2018-09-30T14:30:29.638Z,59.10
2018-09-30T14:32:58.303Z,59.30
2018-09-30T14:35:26.711Z,58.20
2018-09-30T14:37:55.179Z,58.60
2018-09-30T14:40:23.572Z,57.50
2018-09-30T14:42:53.171Z,57.70
2018-09-30T14:45:21.550Z,57.80
2018-09-30T14:47:49.543Z,58.00
2018-09-30T14:50:20.003Z,59.30
2018-09-30T14:52:48.591Z,58.80
2018-09-30T14:55:16.669Z,58.80
2018-09-30T14:57:44.736Z,58.90
2018-09-30T15:00:13.832Z,58.50
2018-09-30T15:02:42.468Z,58.00
2018-09-30T15:05:11.928Z,58.60
2018-09-30T15:07:40.637Z,58.10
2018-09-30T15:10:09.007Z,58.60
2018-09-30T15:12:37.541Z,58.60
2018-09-30T15:15:07.863Z,57.60
2018-09-30T15:17:36.517Z,59.40
2018-09-30T15:20:05.110Z,59.20
2018-09-30T15:22:33.337Z,58.80
2018-09-30T15:25:01.562Z,60.50
2018-09-30T15:27:29.710Z,62.70
2018-09-30T15:29:58.100Z,63.20
2018-09-30T15:32:25.994Z,64.80
2018-09-30T15:34:54.148Z,65.90
2018-09-30T15:37:22.179Z,67.50
2018-09-30T15:39:50.229Z,67.80
2018-09-30T15:42:18.108Z,68.70
2018-09-30T15:44:46.036Z,69.50
2018-09-30T15:47:14.254Z,69.70
2018-09-30T15:49:42.516Z,70.80
2018-09-30T15:52:10.427Z,72.50
2018-09-30T15:54:38.364Z,73.40
2018-09-30T15:57:06.587Z,75.00
2018-09-30T15:59:34.770Z,75.00
2018-09-30T16:02:03.089Z,75.60
2018-09-30T16:04:30.980Z,77.50
2018-09-30T16:06:59.403Z,78.80
2018-09-30T16:09:27.621Z,78.80
2018-09-30T16:11:55.777Z,79.70
2018-09-30T16:14:24.350Z,80.10
2018-09-30T16:16:52.251Z,80.60
2018-09-30T16:19:20.148Z,82.10
2018-09-30T16:21:48.706Z,84.80
2018-09-30T16:24:16.686Z,86.10
2018-09-30T16:26:44.825Z,86.30
2018-09-30T16:29:13.311Z,87.60
2018-09-30T16:31:42.534Z,87.60
2018-09-30T16:34:10.665Z,88.20
2018-09-30T16:36:38.631Z,89.20
2018-09-30T16:39:08.283Z,88.30
2018-09-30T16:41:37.020Z,89.10
2018-09-30T16:44:05.640Z,89.30
2018-09-30T16:46:34.647Z,90.30
2018-09-30T16:49:02.572Z,90.90
2018-09-30T16:51:31.260Z,90.90
2018-09-30T16:53:59.303Z,91.00
2018-09-30T16:56:27.961Z,91.20
2018-09-30T16:58:55.982Z,91.20
2018-09-30T17:01:24.033Z,91.90
2018-09-30T17:03:51.998Z,92.20
2018-09-30T17:06:20.019Z,92.70
2018-09-30T17:08:48.018Z,93.10
2018-09-30T17:11:16.291Z,93.60
2018-09-30T17:13:44.627Z,94.60
2018-09-30T17:16:12.672Z,94.60
2018-09-30T17:18:40.647Z,94.60
2018-09-30T17:21:08.821Z,95.20
2018-09-30T17:23:37.003Z,95.30
2018-09-30T17:26:05.236Z,95.10
2018-09-30T17:28:33.274Z,95.30
2018-09-30T17:31:02.358Z,95.30
2018-09-30T17:33:30.603Z,95.90
2018-09-30T17:35:58.554Z,96.10
2018-09-30T17:38:26.730Z,96.00
2018-09-30T17:40:55.187Z,96.40
2018-09-30T17:43:24.355Z,96.70
2018-09-30T17:45:52.880Z,96.70
2018-09-30T17:48:21.017Z,96.90
2018-09-30T17:50:49.624Z,97.00
2018-09-30T17:53:17.538Z,97.20
2018-09-30T17:55:45.357Z,97.30
2018-09-30T17:58:13.705Z,97.50
2018-09-30T18:00:42.424Z,97.80
2018-09-30T18:03:11.788Z,98.20
2018-09-30T18:05:40.073Z,98.10
2018-09-30T18:08:08.023Z,97.90
2018-09-30T18:10:36.071Z,98.10
2018-09-30T18:13:03.887Z,98.30
2018-09-30T18:15:31.957Z,98.10
2018-09-30T18:18:00.268Z,98.20
2018-09-30T18:20:28.241Z,98.40
2018-09-30T18:22:57.070Z,98.50
2018-09-30T18:25:25.150Z,98.50
2018-09-30T18:27:53.458Z,98.80
2018-09-30T18:30:22.478Z,99.10
2018-09-30T18:32:51.166Z,99.20
2018-09-30T18:35:19.273Z,98.80
2018-09-30T18:37:49.325Z,98.80
2018-09-30T18:40:17.406Z,98.80
2018-09-30T18:42:47.373Z,99.00
2018-09-30T18:45:16.100Z,98.90
2018-09-30T18:47:45.039Z,99.40
2018-09-30T18:50:15.289Z,99.10
2018-09-30T18:52:44.277Z,98.80
2018-09-30T18:55:13.540Z,99.00
2018-09-30T18:57:41.583Z,99.20
2018-09-30T19:00:10.108Z,99.40
2018-09-30T19:02:38.423Z,99.90
2018-09-30T19:05:06.570Z,99.90
2018-09-30T19:07:34.570Z,99.30
2018-09-30T19:10:02.958Z,99.40
2018-09-30T19:12:31.100Z,99.90
2018-09-30T19:14:59.684Z,99.90
2018-09-30T19:17:27.766Z,99.90
2018-09-30T19:19:56.442Z,99.40
2018-09-30T19:22:25.364Z,99.60
2018-09-30T19:24:53.719Z,99.90
2018-09-30T19:27:22.336Z,99.90
2018-09-30T19:29:50.626Z,99.60
2018-09-30T19:32:18.839Z,99.90
2018-09-30T19:34:46.951Z,99.60
2018-09-30T19:37:15.257Z,99.90
2018-09-30T19:39:43.391Z,99.90
2018-09-30T19:42:11.537Z,99.90
2018-09-30T19:44:39.931Z,99.90
2018-09-30T19:47:08.981Z,99.90
2018-09-30T19:49:37.313Z,99.90
2018-09-30T19:52:05.480Z,99.90
2018-09-30T19:54:34.626Z,99.90
2018-09-30T19:57:03.147Z,99.90
2018-09-30T19:59:31.512Z,99.90
2018-09-30T20:01:59.767Z,99.90
2018-09-30T20:04:27.839Z,99.90
2018-09-30T20:06:55.765Z,99.90
2018-09-30T20:09:24.669Z,99.90
2018-09-30T20:11:52.679Z,99.90
2018-09-30T20:14:21.316Z,99.90
2018-09-30T20:16:49.644Z,99.90
2018-09-30T20:19:17.890Z,99.90
2018-09-30T20:21:45.898Z,99.90
2018-09-30T20:24:13.947Z,99.90
2018-09-30T20:26:42.109Z,99.90
2018-09-30T20:29:10.085Z,99.90
2018-09-30T20:31:38.660Z,99.90
2018-09-30T20:34:06.997Z,99.90
2018-09-30T20:36:36.312Z,99.90
2018-09-30T20:39:05.534Z,99.90
2018-09-30T20:41:33.991Z,99.90
2018-09-30T20:44:01.935Z,99.90
2018-09-30T20:46:30.076Z,99.90
2018-09-30T20:48:58.248Z,99.90
2018-09-30T20:51:26.409Z,99.90
2018-09-30T20:53:54.808Z,99.90
2018-09-30T20:56:23.135Z,99.90
2018-09-30T20:58:51.686Z,99.90
2018-09-30T21:01:20.967Z,99.90
2018-09-30T21:03:48.997Z,99.90
2018-09-30T21:06:28.193Z,99.90
2018-09-30T21:08:56.527Z,99.90
2018-09-30T21:11:24.494Z,99.90
2018-09-30T21:13:53.574Z,99.90
2018-09-30T21:16:21.651Z,99.90
2018-09-30T21:18:49.867Z,99.90
2018-09-30T21:21:17.852Z,99.90
2018-09-30T21:23:46.084Z,99.90
2018-09-30T21:26:14.563Z,99.90
2018-09-30T21:28:42.891Z,99.90
2018-09-30T21:31:12.167Z,99.90
2018-09-30T21:33:40.232Z,99.90
2018-09-30T21:36:09.519Z,99.90
2018-09-30T21:38:37.753Z,99.90
2018-09-30T21:41:07.758Z,99.90
2018-09-30T21:43:38.362Z,99.90
2018-09-30T21:46:07.707Z,99.90
2018-09-30T21:48:36.360Z,99.90
2018-09-30T21:51:04.732Z,99.90
2018-09-30T21:53:32.729Z,99.90
2018-09-30T21:56:01.038Z,99.90
2018-09-30T21:58:36.835Z,99.90
2018-09-30T22:01:05.620Z,99.90
2018-09-30T22:03:34.534Z,99.90
2018-09-30T22:06:02.878Z,99.90
2018-09-30T22:08:30.755Z,99.90
2018-09-30T22:10:59.022Z,99.90
2018-09-30T22:13:27.397Z,99.90
2018-09-30T22:15:55.805Z,99.90
2018-09-30T22:18:24.013Z,99.90
2018-09-30T22:20:52.379Z,99.90
2018-09-30T22:23:20.295Z,99.90
2018-09-30T22:25:48.381Z,99.90
2018-09-30T22:28:16.434Z,99.90
2018-09-30T22:30:44.800Z,99.90
2018-09-30T22:33:12.791Z,99.90
2018-09-30T22:35:40.747Z,99.90
2018-09-30T22:38:08.603Z,99.90
2018-09-30T22:40:36.463Z,99.90
2018-09-30T22:43:04.318Z,99.90
2018-09-30T22:45:32.127Z,99.90
2018-09-30T22:48:00.192Z,99.90
2018-09-30T22:50:28.377Z,99.90
2018-09-30T22:52:56.383Z,99.90
2018-09-30T22:55:24.446Z,99.90
2018-09-30T22:57:52.494Z,99.90
2018-09-30T23:00:20.581Z,99.90
2018-09-30T23:02:48.730Z,99.90
2018-09-30T23:05:16.627Z,99.90
2018-09-30T23:07:44.742Z,99.90
2018-09-30T23:10:13.377Z,99.90
2018-09-30T23:12:41.562Z,99.90
2018-09-30T23:15:09.694Z,99.90
2018-09-30T23:17:37.805Z,99.90
2018-09-30T23:20:10.460Z,99.90
2018-09-30T23:22:38.661Z,99.90
2018-09-30T23:25:06.831Z,99.90
2018-09-30T23:27:34.964Z,99.90
2018-09-30T23:30:03.204Z,99.90
2018-09-30T23:32:31.958Z,99.90
2018-09-30T23:34:59.829Z,99.90
2018-09-30T23:37:28.728Z,99.90
2018-09-30T23:39:56.749Z,99.90
2018-09-30T23:42:24.718Z,99.90
2018-09-30T23:44:52.609Z,99.90
2018-09-30T23:47:20.508Z,99.90
2018-09-30T23:49:48.419Z,99.90
2018-09-30T23:52:16.354Z,99.90
2018-09-30T23:54:44.467Z,99.90
2018-09-30T23:57:12.543Z,99.90
2018-09-30T23:59:40.663Z,99.90
